Time;durP1;ratioP1;P1;durP2;ratioP2;P2;SDS_P1;SDS_P2;PMS_P1;PMS_P2;Temp;Humidity;BMP_temperature;BMP_pressure;BME280_temperature;BME280_humidity;BME280_pressure;Samples;Min_cycle;Max_cycle;Signal;HPM_P1;HPM_P2
2021/09/20 00:01:09;;;;;;;19.02;11.70;;;;;;;;;;5014405;28;20497;-59
2021/09/20 00:03:35;;;;;;;21.70;13.35;;;;;;;;;;5031923;28;20033;-59
2021/09/20 00:06:01;;;;;;;21.23;12.73;;;;;;;;;;5004780;28;20028;-59
2021/09/20 00:08:27;;;;;;;18.88;11.23;;;;;;;;;;5013369;28;20076;-57
2021/09/20 00:10:53;;;;;;;19.05;12.05;;;;;;;;;;5016304;28;20083;-59
2021/09/20 00:13:19;;;;;;;26.30;12.68;;;;;;;;;;5016271;28;20101;-59
2021/09/20 00:15:44;;;;;;;20.27;12.05;;;;;;;;;;4998839;28;20114;-59
2021/09/20 00:18:10;;;;;;;19.55;12.25;;;;;;;;;;5017074;28;20109;-59
2021/09/20 00:20:36;;;;;;;20.33;12.27;;;;;;;;;;5016172;28;20037;-59
2021/09/20 00:23:02;;;;;;;18.70;11.23;;;;;;;;;;5016251;28;20029;-58
2021/09/20 00:25:28;;;;;;;18.52;11.45;;;;;;;;;;5016080;28;20026;-56
2021/09/20 00:27:54;;;;;;;20.35;11.65;;;;;;;;;;5016090;28;20026;-59
2021/09/20 00:30:20;;;;;;;19.77;12.18;;;;;;;;;;4998046;28;20036;-58
2021/09/20 00:32:46;;;;;;;18.95;11.18;;;;;;;;;;5015918;28;20022;-58
2021/09/20 00:35:12;;;;;;;20.13;11.80;;;;;;;;;;5019181;28;20029;-59
2021/09/20 00:37:38;;;;;;;19.80;12.65;;;;;;;;;;5017757;28;20027;-58
2021/09/20 00:40:05;;;;;;;21.02;13.10;;;;;;;;;;5035443;28;20119;-57
2021/09/20 00:42:31;;;;;;;19.63;11.15;;;;;;;;;;5017905;28;20633;-59
2021/09/20 00:44:57;;;;;;;19.45;12.00;;;;;;;;;;5017749;28;20029;-56
2021/09/20 00:47:23;;;;;;;20.05;12.05;;;;;;;;;;5035501;28;20037;-58
2021/09/20 00:49:49;;;;;;;20.98;12.27;;;;;;;;;;5017388;28;20029;-56
2021/09/20 00:52:15;;;;;;;20.00;12.50;;;;;;;;;;5033698;28;20041;-59
2021/09/20 00:54:42;;;;;;;22.77;12.85;;;;;;;;;;5035420;28;20021;-58
2021/09/20 00:57:08;;;;;;;19.27;12.15;;;;;;;;;;5035209;28;20560;-59
2021/09/20 00:59:34;;;;;;;22.20;12.88;;;;;;;;;;5034962;28;20064;-59
2021/09/20 01:02:00;;;;;;;21.42;13.00;;;;;;;;;;5017416;28;20428;-58
2021/09/20 01:04:26;;;;;;;20.77;12.55;;;;;;;;;;5035055;28;20108;-58
2021/09/20 01:06:52;;;;;;;21.23;12.27;;;;;;;;;;5017224;28;20091;-59
2021/09/20 01:09:18;;;;;;;21.45;12.60;;;;;;;;;;5017044;28;20036;-59
2021/09/20 01:11:45;;;;;;;20.42;12.27;;;;;;;;;;5033334;28;20032;-60
2021/09/20 01:14:11;;;;;;;20.10;11.55;;;;;;;;;;5033806;28;20026;-59
2021/09/20 01:16:37;;;;;;;19.85;12.63;;;;;;;;;;5017084;28;20507;-60
2021/09/20 01:19:03;;;;;;;19.83;12.05;;;;;;;;;;5016871;28;20029;-59
2021/09/20 01:21:29;;;;;;;20.15;12.45;;;;;;;;;;5034793;28;20048;-59
2021/09/20 01:23:55;;;;;;;19.67;11.82;;;;;;;;;;5034733;28;20378;-58
2021/09/20 01:26:21;;;;;;;20.23;12.25;;;;;;;;;;5032440;28;20026;-59
2021/09/20 01:28:47;;;;;;;22.58;13.07;;;;;;;;;;5034349;28;20065;-59
2021/09/20 01:31:14;;;;;;;20.48;12.88;;;;;;;;;;5032767;28;20128;-59
2021/09/20 01:33:40;;;;;;;21.38;13.13;;;;;;;;;;5034561;28;20029;-58
2021/09/20 01:36:06;;;;;;;20.83;12.98;;;;;;;;;;5016759;28;20025;-59
2021/09/20 01:38:32;;;;;;;21.42;13.15;;;;;;;;;;5034202;28;20026;-61
2021/09/20 01:40:58;;;;;;;20.58;12.05;;;;;;;;;;5034348;28;20497;-59
2021/09/20 01:43:24;;;;;;;24.77;15.50;;;;;;;;;;5034338;28;20033;-57
2021/09/20 01:45:50;;;;;;;166.68;120.32;;;;;;;;;;5034232;28;20055;-58
2021/09/20 01:48:17;;;;;;;134.68;102.43;;;;;;;;;;5033882;28;20033;-59
2021/09/20 01:50:43;;;;;;;53.28;40.63;;;;;;;;;;5034327;28;20477;-60
2021/09/20 01:53:09;;;;;;;30.55;20.85;;;;;;;;;;5032586;28;20104;-59
2021/09/20 01:55:35;;;;;;;31.80;21.88;;;;;;;;;;5033773;28;20108;-59
2021/09/20 01:58:02;;;;;;;74.75;54.17;;;;;;;;;;5034387;28;20030;-59
2021/09/20 02:00:28;;;;;;;45.42;32.28;;;;;;;;;;5033934;28;20068;-58
2021/09/20 02:02:53;;;;;;;41.83;29.58;;;;;;;;;;5016375;28;20052;-59
2021/09/20 02:05:19;;;;;;;24.05;16.25;;;;;;;;;;5016561;28;20028;-59
2021/09/20 02:07:45;;;;;;;21.83;13.20;;;;;;;;;;5034100;28;20492;-59
2021/09/20 02:10:13;;;;;;;27.08;19.00;;;;;;;;;;5015972;28;20065;-59
2021/09/20 02:12:39;;;;;;;42.20;31.02;;;;;;;;;;4998551;28;20026;-59
2021/09/20 02:15:06;;;;;;;27.25;18.38;;;;;;;;;;5013891;28;20059;-57
2021/09/20 02:17:32;;;;;;;25.75;15.73;;;;;;;;;;5019538;28;20053;-61
2021/09/20 02:19:58;;;;;;;21.90;14.40;;;;;;;;;;5033383;28;20101;-59
2021/09/20 02:22:24;;;;;;;25.25;16.42;;;;;;;;;;5033671;28;20026;-59
2021/09/20 02:24:50;;;;;;;23.80;14.80;;;;;;;;;;5015670;28;20386;-59
2021/09/20 02:27:16;;;;;;;26.75;15.70;;;;;;;;;;5031715;28;20033;-59
2021/09/20 02:29:42;;;;;;;27.60;14.15;;;;;;;;;;5033150;28;20095;-59
2021/09/20 02:32:08;;;;;;;21.38;13.55;;;;;;;;;;5015212;28;20022;-59
2021/09/20 02:34:34;;;;;;;26.40;18.35;;;;;;;;;;5015818;28;20036;-59
2021/09/20 02:37:00;;;;;;;26.02;16.45;;;;;;;;;;5033194;28;20030;-57
2021/09/20 02:39:26;;;;;;;30.65;20.75;;;;;;;;;;5015163;28;20033;-59
2021/09/20 02:41:53;;;;;;;21.75;13.65;;;;;;;;;;5033121;28;20032;-60
2021/09/20 02:44:19;;;;;;;22.42;14.75;;;;;;;;;;5015531;28;20114;-59
2021/09/20 02:46:45;;;;;;;21.92;13.02;;;;;;;;;;5031396;28;20084;-59
2021/09/20 02:49:11;;;;;;;25.08;16.35;;;;;;;;;;5032839;28;20030;-57
2021/09/20 02:51:37;;;;;;;20.95;12.90;;;;;;;;;;5015197;28;20025;-59
2021/09/20 02:54:03;;;;;;;29.20;18.95;;;;;;;;;;5032975;28;20397;-57
2021/09/20 02:56:29;;;;;;;22.85;14.25;;;;;;;;;;5032811;28;20044;-58
2021/09/20 02:58:55;;;;;;;23.25;14.85;;;;;;;;;;5032692;28;20025;-59
2021/09/20 03:01:21;;;;;;;21.05;12.90;;;;;;;;;;5015506;28;20397;-59
2021/09/20 03:03:47;;;;;;;24.00;12.73;;;;;;;;;;5032906;28;20022;-59
2021/09/20 03:06:13;;;;;;;31.70;22.15;;;;;;;;;;5032717;28;20096;-59
2021/09/20 03:08:39;;;;;;;21.90;12.98;;;;;;;;;;5013413;28;20025;-59
2021/09/20 03:11:05;;;;;;;19.83;12.40;;;;;;;;;;5033467;28;20503;-61
2021/09/20 03:13:31;;;;;;;20.33;11.75;;;;;;;;;;5032642;28;20040;-59
2021/09/20 03:15:57;;;;;;;19.20;11.80;;;;;;;;;;5014888;28;20079;-59
2021/09/20 03:18:23;;;;;;;22.80;12.75;;;;;;;;;;5014570;28;20026;-59
2021/09/20 03:20:49;;;;;;;22.45;13.07;;;;;;;;;;5032498;28;20029;-59
2021/09/20 03:23:15;;;;;;;20.40;12.27;;;;;;;;;;5032492;28;20030;-60
2021/09/20 03:25:41;;;;;;;21.23;12.95;;;;;;;;;;5032413;28;20029;-60
2021/09/20 03:28:07;;;;;;;20.65;11.95;;;;;;;;;;5021337;28;20425;-60
2021/09/20 03:30:33;;;;;;;19.67;12.30;;;;;;;;;;5028484;28;20040;-59
2021/09/20 03:32:59;;;;;;;20.60;12.90;;;;;;;;;;5014735;28;20097;-59
2021/09/20 03:35:25;;;;;;;21.65;13.13;;;;;;;;;;5032437;28;20385;-60
2021/09/20 03:37:51;;;;;;;20.55;12.52;;;;;;;;;;5032150;28;20062;-61
2021/09/20 03:40:18;;;;;;;21.60;11.80;;;;;;;;;;5014443;28;20025;-59
2021/09/20 03:42:45;;;;;;;19.80;11.80;;;;;;;;;;5031425;28;20509;-59
2021/09/20 03:45:11;;;;;;;21.20;12.50;;;;;;;;;;5031981;28;20112;-59
2021/09/20 03:47:37;;;;;;;20.60;12.82;;;;;;;;;;5030003;28;20026;-59
2021/09/20 03:50:05;;;;;;;20.38;12.68;;;;;;;;;;5013997;28;20099;-59
2021/09/20 03:52:31;;;;;;;21.93;12.40;;;;;;;;;;5014131;28;20036;-60
2021/09/20 03:54:57;;;;;;;22.55;13.88;;;;;;;;;;5014523;28;20026;-59
2021/09/20 03:57:23;;;;;;;21.77;13.10;;;;;;;;;;5014281;28;20030;-57
2021/09/20 03:59:49;;;;;;;22.75;13.50;;;;;;;;;;5014209;28;20393;-59
2021/09/20 04:02:15;;;;;;;21.33;12.73;;;;;;;;;;5014769;28;20120;-59
2021/09/20 04:04:41;;;;;;;21.60;13.55;;;;;;;;;;5032193;28;20029;-60
2021/09/20 04:07:08;;;;;;;21.60;13.20;;;;;;;;;;5031686;28;20629;-60
2021/09/20 04:09:34;;;;;;;23.83;12.15;;;;;;;;;;5016819;28;20079;-59
2021/09/20 04:12:00;;;;;;;21.38;12.52;;;;;;;;;;5031684;28;20025;-59
2021/09/20 04:14:26;;;;;;;22.20;12.48;;;;;;;;;;5031874;28;20032;-60
2021/09/20 04:16:52;;;;;;;20.98;12.63;;;;;;;;;;5013756;28;20029;-59
2021/09/20 04:19:18;;;;;;;25.83;13.77;;;;;;;;;;4994439;28;20396;-59
2021/09/20 04:21:44;;;;;;;27.83;13.27;;;;;;;;;;5012214;28;20109;-59
2021/09/20 04:24:10;;;;;;;24.55;13.48;;;;;;;;;;5012042;28;20029;-59
2021/09/20 04:26:36;;;;;;;21.95;13.85;;;;;;;;;;5011820;28;20030;-59
2021/09/20 04:29:02;;;;;;;21.35;12.40;;;;;;;;;;4995219;28;20098;-59
2021/09/20 04:31:28;;;;;;;23.90;13.20;;;;;;;;;;5012079;28;20030;-59
2021/09/20 04:33:54;;;;;;;26.20;13.38;;;;;;;;;;5011997;28;20029;-59
2021/09/20 04:36:21;;;;;;;21.95;13.32;;;;;;;;;;4994362;28;20481;-59
2021/09/20 04:38:47;;;;;;;21.60;12.88;;;;;;;;;;5011647;28;20056;-60
2021/09/20 04:41:13;;;;;;;23.50;12.38;;;;;;;;;;5011910;28;20085;-57
2021/09/20 04:43:39;;;;;;;20.33;12.68;;;;;;;;;;5012015;28;20037;-59
2021/09/20 04:46:05;;;;;;;20.58;12.52;;;;;;;;;;4994587;28;20490;-61
2021/09/20 04:48:31;;;;;;;28.60;17.48;;;;;;;;;;4994322;28;20405;-58
2021/09/20 04:50:57;;;;;;;25.60;14.27;;;;;;;;;;5030039;28;20043;-59
2021/09/20 04:53:24;;;;;;;26.70;14.35;;;;;;;;;;5030052;28;20021;-59
2021/09/20 04:55:50;;;;;;;20.73;13.30;;;;;;;;;;5052525;28;20032;-59
2021/09/20 04:58:16;;;;;;;22.60;12.60;;;;;;;;;;5036804;28;20021;-59
2021/09/20 05:00:42;;;;;;;30.48;19.33;;;;;;;;;;5055057;28;20102;-59
2021/09/20 05:03:09;;;;;;;22.70;13.68;;;;;;;;;;5054867;28;20416;-59
2021/09/20 05:05:35;;;;;;;22.92;13.00;;;;;;;;;;5054587;28;20021;-59
2021/09/20 05:08:00;;;;;;;26.05;14.13;;;;;;;;;;5036678;28;20405;-59
2021/09/20 05:10:26;;;;;;;26.52;14.35;;;;;;;;;;5029740;28;20022;-60
2021/09/20 05:12:53;;;;;;;25.55;14.30;;;;;;;;;;5014783;28;20161;-59
2021/09/20 05:15:19;;;;;;;28.27;15.10;;;;;;;;;;5014601;28;20022;-59
2021/09/20 05:17:45;;;;;;;22.45;13.13;;;;;;;;;;5004247;28;20393;-59
2021/09/20 05:20:12;;;;;;;24.40;14.48;;;;;;;;;;5034232;28;20029;-59
2021/09/20 05:22:38;;;;;;;24.88;14.55;;;;;;;;;;5034030;28;20029;-59
2021/09/20 05:25:05;;;;;;;26.13;15.52;;;;;;;;;;5046414;28;20033;-59
2021/09/20 05:27:31;;;;;;;24.58;14.02;;;;;;;;;;5053756;28;20069;-59
2021/09/20 05:29:58;;;;;;;22.27;13.27;;;;;;;;;;5050853;28;20100;-59
2021/09/20 05:32:24;;;;;;;23.65;13.77;;;;;;;;;;5028042;28;20032;-60
2021/09/20 05:34:51;;;;;;;28.70;14.65;;;;;;;;;;5049826;28;20428;-60
2021/09/20 05:37:17;;;;;;;23.15;13.38;;;;;;;;;;5053386;28;20036;-60
2021/09/20 05:39:44;;;;;;;24.55;13.93;;;;;;;;;;5053222;28;20029;-60
2021/09/20 05:42:10;;;;;;;25.15;13.90;;;;;;;;;;5054135;28;20136;-59
2021/09/20 05:44:36;;;;;;;28.80;13.98;;;;;;;;;;5035645;28;20025;-57
2021/09/20 05:47:02;;;;;;;32.25;14.02;;;;;;;;;;5053239;28;20029;-60
2021/09/20 05:49:28;;;;;;;25.55;13.48;;;;;;;;;;5043443;28;20091;-60
2021/09/20 05:51:54;;;;;;;23.65;13.50;;;;;;;;;;5015846;28;20481;-59
2021/09/20 05:54:20;;;;;;;21.17;13.27;;;;;;;;;;5033563;28;20028;-60
2021/09/20 05:56:46;;;;;;;22.27;13.18;;;;;;;;;;5034643;28;20077;-57
2021/09/20 05:59:12;;;;;;;24.48;13.88;;;;;;;;;;5032733;28;20053;-58
2021/09/20 06:01:38;;;;;;;34.83;15.38;;;;;;;;;;5033322;28;20496;-62
2021/09/20 06:04:04;;;;;;;28.00;14.02;;;;;;;;;;5013157;28;20120;-58
2021/09/20 06:06:30;;;;;;;27.35;13.45;;;;;;;;;;5012115;28;20466;-59
2021/09/20 06:08:56;;;;;;;28.92;14.45;;;;;;;;;;5012647;28;20132;-59
2021/09/20 06:11:22;;;;;;;27.98;13.48;;;;;;;;;;4995663;28;20113;-59
2021/09/20 06:13:48;;;;;;;27.40;14.93;;;;;;;;;;5013191;28;20057;-58
2021/09/20 06:16:14;;;;;;;25.80;13.43;;;;;;;;;;4994918;28;20029;-57
2021/09/20 06:18:40;;;;;;;24.42;14.00;;;;;;;;;;5009002;28;20375;-58
2021/09/20 06:21:06;;;;;;;23.23;14.00;;;;;;;;;;5033013;28;20029;-58
2021/09/20 06:23:32;;;;;;;23.67;13.57;;;;;;;;;;5015279;28;20095;-55
2021/09/20 06:25:58;;;;;;;25.40;15.32;;;;;;;;;;5045760;28;20036;-59
2021/09/20 06:28:24;;;;;;;23.80;13.77;;;;;;;;;;5052473;28;20028;-59
2021/09/20 06:30:50;;;;;;;23.70;13.02;;;;;;;;;;5045329;28;20025;-58
2021/09/20 06:33:16;;;;;;;23.05;12.73;;;;;;;;;;5032133;28;20048;-57
2021/09/20 06:35:43;;;;;;;23.13;13.38;;;;;;;;;;5032585;28;20030;-59
2021/09/20 06:38:09;;;;;;;22.75;12.43;;;;;;;;;;5014911;28;20124;-57
2021/09/20 06:40:35;;;;;;;25.73;13.35;;;;;;;;;;5014857;28;20025;-58
2021/09/20 06:43:01;;;;;;;23.60;13.25;;;;;;;;;;5014479;28;20022;-58
2021/09/20 06:45:27;;;;;;;25.10;13.20;;;;;;;;;;5039567;28;20091;-59
2021/09/20 06:47:53;;;;;;;24.92;12.63;;;;;;;;;;5014297;28;20025;-60
2021/09/20 06:50:19;;;;;;;21.55;13.48;;;;;;;;;;5032294;28;20500;-60
2021/09/20 06:52:46;;;;;;;25.13;14.70;;;;;;;;;;5014822;28;20452;-61
2021/09/20 06:55:13;;;;;;;27.10;13.90;;;;;;;;;;5032344;28;20647;-58
2021/09/20 06:57:39;;;;;;;27.90;14.43;;;;;;;;;;5032551;28;20126;-56
2021/09/20 07:00:06;;;;;;;24.95;14.77;;;;;;;;;;5032175;28;20144;-58
2021/09/20 07:02:32;;;;;;;23.02;13.88;;;;;;;;;;5032334;28;20519;-58
2021/09/20 07:04:58;;;;;;;23.08;14.73;;;;;;;;;;5027776;28;20029;-56
2021/09/20 07:07:24;;;;;;;23.73;14.88;;;;;;;;;;5048238;28;20031;-58
2021/09/20 07:09:50;;;;;;;24.30;14.18;;;;;;;;;;5051670;28;20028;-55
2021/09/20 07:12:16;;;;;;;23.83;14.02;;;;;;;;;;5051800;28;20016;-55
2021/09/20 07:14:42;;;;;;;22.08;13.90;;;;;;;;;;5051738;28;20017;-63
2021/09/20 07:17:08;;;;;;;20.75;13.43;;;;;;;;;;5033653;28;20017;-59
2021/09/20 07:19:34;;;;;;;21.17;14.20;;;;;;;;;;5051417;28;20025;-57
2021/09/20 07:22:00;;;;;;;21.67;14.25;;;;;;;;;;5047364;28;20446;-55
2021/09/20 07:24:27;;;;;;;22.15;14.27;;;;;;;;;;5052017;28;20025;-54
2021/09/20 07:26:53;;;;;;;22.83;13.80;;;;;;;;;;5045140;28;20440;-57
2021/09/20 07:29:19;;;;;;;20.27;13.25;;;;;;;;;;5011662;28;20049;-53
2021/09/20 07:31:46;;;;;;;21.17;13.30;;;;;;;;;;5012447;28;20382;-54
2021/09/20 07:34:12;;;;;;;24.50;14.32;;;;;;;;;;5012320;28;20026;-58
2021/09/20 07:36:38;;;;;;;21.00;12.90;;;;;;;;;;5012211;28;20022;-56
2021/09/20 07:39:04;;;;;;;22.55;15.07;;;;;;;;;;5012040;28;20037;-56
2021/09/20 07:41:31;;;;;;;22.40;14.05;;;;;;;;;;5012286;28;20057;-55
2021/09/20 07:43:57;;;;;;;20.60;13.52;;;;;;;;;;5012236;28;20033;-57
2021/09/20 07:46:23;;;;;;;20.15;14.18;;;;;;;;;;5020898;28;20389;-57
2021/09/20 07:48:53;;;;;;;20.17;12.88;;;;;;;;;;5030630;28;20032;-56
2021/09/20 07:51:20;;;;;;;24.42;13.90;;;;;;;;;;5031349;28;20017;-55
2021/09/20 07:53:46;;;;;;;22.38;13.77;;;;;;;;;;5014001;28;20598;-58
2021/09/20 07:56:12;;;;;;;23.80;13.98;;;;;;;;;;5031075;28;20051;-58
2021/09/20 07:58:38;;;;;;;21.23;13.35;;;;;;;;;;5031199;28;20678;-57
2021/09/20 08:01:04;;;;;;;20.83;13.88;;;;;;;;;;5027365;28;20096;-55
2021/09/20 08:03:30;;;;;;;20.45;14.68;;;;;;;;;;4993991;28;20026;-56
2021/09/20 08:05:56;;;;;;;24.10;15.05;;;;;;;;;;5011655;28;20092;-58
2021/09/20 08:08:23;;;;;;;24.50;14.65;;;;;;;;;;5021897;28;20024;-58
2021/09/20 08:10:49;;;;;;;19.83;14.23;;;;;;;;;;5051036;28;20449;-55
2021/09/20 08:13:15;;;;;;;22.17;15.32;;;;;;;;;;5051086;28;20025;-57
2021/09/20 08:15:42;;;;;;;21.27;14.85;;;;;;;;;;5033429;28;20017;-59
2021/09/20 08:18:08;;;;;;;20.77;15.30;;;;;;;;;;5033517;28;20036;-59
2021/09/20 08:20:34;;;;;;;20.33;14.77;;;;;;;;;;5036778;28;20029;-59
2021/09/20 08:23:00;;;;;;;26.60;15.88;;;;;;;;;;5051671;28;20056;-56
2021/09/20 08:25:26;;;;;;;20.40;15.60;;;;;;;;;;5050998;28;20036;-55
2021/09/20 08:27:53;;;;;;;22.35;15.10;;;;;;;;;;5050868;28;20025;-56
2021/09/20 08:30:20;;;;;;;20.27;15.05;;;;;;;;;;5053400;28;20021;-59
2021/09/20 08:32:47;;;;;;;19.55;15.13;;;;;;;;;;5046890;28;20045;-59
2021/09/20 08:35:13;;;;;;;19.13;14.90;;;;;;;;;;5014694;28;20041;-59
2021/09/20 08:37:39;;;;;;;19.92;15.77;;;;;;;;;;4997815;28;20101;-60
2021/09/20 08:40:06;;;;;;;22.58;15.65;;;;;;;;;;5015618;28;20046;-56
2021/09/20 08:42:35;;;;;;;21.05;15.95;;;;;;;;;;5016002;28;20033;-59
2021/09/20 08:45:01;;;;;;;20.58;15.70;;;;;;;;;;5015084;28;20040;-59
2021/09/20 08:47:27;;;;;;;18.48;14.75;;;;;;;;;;5015627;28;20022;-55
2021/09/20 08:49:53;;;;;;;19.58;15.30;;;;;;;;;;5014879;28;20057;-59
2021/09/20 08:52:23;;;;;;;20.13;15.07;;;;;;;;;;5046836;28;20033;-59
2021/09/20 08:54:51;;;;;;;19.88;15.70;;;;;;;;;;5046549;28;20099;-58
2021/09/20 08:57:17;;;;;;;19.17;15.38;;;;;;;;;;5019321;28;20541;-56
2021/09/20 08:59:43;;;;;;;21.67;15.45;;;;;;;;;;5014486;28;20030;-60
2021/09/20 09:02:11;;;;;;;18.45;14.55;;;;;;;;;;4997768;28;20033;-58
2021/09/20 09:04:39;;;;;;;19.45;15.57;;;;;;;;;;5016720;28;20082;-57
2021/09/20 09:07:05;;;;;;;;;;;;;;;;;;5035415;28;20042;-56
2021/09/20 09:09:36;;;;;;;20.63;15.75;;;;;;;;;;5034321;28;20026;-56
2021/09/20 09:12:14;;;;;;;19.77;15.43;;;;;;;;;;5033921;28;20100;-54
2021/09/20 09:14:48;;;;;;;22.55;15.80;;;;;;;;;;5032341;28;20434;-58
2021/09/20 09:17:15;;;;;;;20.70;15.75;;;;;;;;;;5016616;28;20029;-59
2021/09/20 09:19:42;;;;;;;18.53;15.70;;;;;;;;;;5034052;28;20050;-58
2021/09/20 09:22:08;;;;;;;18.63;15.20;;;;;;;;;;5034519;28;20299;-59
2021/09/20 09:24:34;;;;;;;19.20;15.70;;;;;;;;;;5033918;28;20033;-58
2021/09/20 09:27:02;;;;;;;18.10;15.10;;;;;;;;;;5033813;28;20036;-58
2021/09/20 09:29:32;;;;;;;17.27;14.73;;;;;;;;;;5033786;28;20112;-59
2021/09/20 09:31:59;;;;;;;20.13;15.43;;;;;;;;;;5034107;28;20381;-56
2021/09/20 09:34:30;;;;;;;20.88;15.43;;;;;;;;;;5032645;28;20036;-56
2021/09/20 09:37:10;;;;;;;18.10;15.00;;;;;;;;;;5034315;28;20041;-57
2021/09/20 09:39:36;;;;;;;18.92;15.40;;;;;;;;;;5033918;28;20025;-56
2021/09/20 09:42:02;;;;;;;21.13;16.05;;;;;;;;;;5043913;28;20028;-58
2021/09/20 09:44:29;;;;;;;18.55;15.40;;;;;;;;;;5053716;28;20025;-54
2021/09/20 09:46:56;;;;;;;17.83;14.98;;;;;;;;;;5053979;28;20033;-58
2021/09/20 09:49:23;;;;;;;19.42;15.80;;;;;;;;;;5035077;28;20078;-59
2021/09/20 09:52:20;;;;;;;22.67;15.27;;;;;;;;;;5052272;28;20108;-58
2021/09/20 09:54:46;;;;;;;19.98;15.95;;;;;;;;;;5018201;28;20030;-55
2021/09/20 09:57:21;;;;;;;23.55;16.33;;;;;;;;;;5015402;28;20095;-61
2021/09/20 10:00:14;;;;;;;17.65;15.27;;;;;;;;;;5033844;28;20029;-60
2021/09/20 10:02:42;;;;;;;19.00;15.23;;;;;;;;;;5031073;28;20034;-60
2021/09/20 10:05:12;;;;;;;19.60;15.40;;;;;;;;;;5032613;28;20052;-60
2021/09/20 10:07:38;;;;;;;20.65;15.73;;;;;;;;;;5031415;28;20022;-60
2021/09/20 10:10:27;;;;;;;19.63;14.95;;;;;;;;;;5029508;28;20401;-61
2021/09/20 10:12:54;;;;;;;18.58;14.75;;;;;;;;;;5021926;28;20036;-60
2021/09/20 10:15:21;;;;;;;17.33;14.77;;;;;;;;;;5014749;28;20037;-60
2021/09/20 10:17:48;;;;;;;28.30;16.80;;;;;;;;;;5032398;28;20100;-60
2021/09/20 10:20:15;;;;;;;50.10;25.52;;;;;;;;;;5032669;28;20022;-60
2021/09/20 10:22:42;;;;;;;17.75;14.45;;;;;;;;;;5033104;28;20112;-60
2021/09/20 10:25:09;;;;;;;19.23;15.32;;;;;;;;;;5015301;28;20037;-59
2021/09/20 10:27:37;;;;;;;16.83;14.23;;;;;;;;;;5033211;28;20112;-58
2021/09/20 10:30:09;;;;;;;17.25;14.38;;;;;;;;;;5031071;28;20030;-60
2021/09/20 10:32:35;;;;;;;18.95;14.45;;;;;;;;;;5015147;28;20396;-60
2021/09/20 10:35:20;;;;;;;17.88;14.13;;;;;;;;;;5032656;28;20021;-61
2021/09/20 10:37:47;;;;;;;17.73;14.48;;;;;;;;;;5015378;28;20085;-61
2021/09/20 10:40:13;;;;;;;21.25;14.85;;;;;;;;;;5032790;28;20504;-60
2021/09/20 10:42:46;;;;;;;18.00;13.90;;;;;;;;;;5032699;28;20037;-60
2021/09/20 10:45:31;;;;;;;17.48;14.40;;;;;;;;;;5032198;28;20156;-60
2021/09/20 10:48:02;;;;;;;18.30;13.63;;;;;;;;;;5032667;28;20025;-60
2021/09/20 10:50:44;;;;;;;17.85;14.20;;;;;;;;;;5031472;28;20488;-62
2021/09/20 10:53:13;;;;;;;16.30;13.73;;;;;;;;;;5012905;28;20053;-61
2021/09/20 10:55:58;;;;;;;17.15;14.48;;;;;;;;;;5012779;28;20117;-60
2021/09/20 10:58:24;;;;;;;16.70;13.98;;;;;;;;;;5012410;28;20030;-61
2021/09/20 11:01:10;;;;;;;18.40;14.13;;;;;;;;;;5013073;28;20077;-60
2021/09/20 11:03:39;;;;;;;17.60;13.90;;;;;;;;;;5012693;28;20026;-63
2021/09/20 11:06:24;;;;;;;16.88;14.00;;;;;;;;;;4995058;28;20025;-61
2021/09/20 11:09:01;;;;;;;16.52;14.23;;;;;;;;;;5012118;28;20022;-61
2021/09/20 11:14:09;;;;;;;16.67;14.20;;;;;;;;;;5011718;28;20100;-58
2021/09/20 11:16:55;;;;;;;17.52;14.55;;;;;;;;;;4994569;28;20022;-59
2021/09/20 11:19:33;;;;;;;17.58;14.80;;;;;;;;;;5011609;28;20034;-61
2021/09/20 11:22:12;;;;;;;17.00;14.40;;;;;;;;;;5012275;28;20100;-61
2021/09/20 11:24:47;;;;;;;19.02;14.90;;;;;;;;;;4994456;28;20025;-61
2021/09/20 11:27:14;;;;;;;17.52;14.90;;;;;;;;;;5012024;28;20030;-60
2021/09/20 11:29:41;;;;;;;17.13;14.30;;;;;;;;;;5011591;28;20647;-61
2021/09/20 11:32:08;;;;;;;17.85;14.52;;;;;;;;;;5013177;28;20066;-61
2021/09/20 11:34:36;;;;;;;19.00;14.30;;;;;;;;;;5013150;28;20026;-61
2021/09/20 11:37:15;;;;;;;17.88;14.27;;;;;;;;;;5031958;28;20029;-58
2021/09/20 11:39:54;;;;;;;17.95;14.73;;;;;;;;;;5031812;28;20416;-61
2021/09/20 11:42:22;;;;;;;16.50;14.30;;;;;;;;;;5032027;28;20091;-61
2021/09/20 11:45:12;;;;;;;18.17;14.90;;;;;;;;;;5014212;28;20029;-61
2021/09/20 11:47:42;;;;;;;18.33;14.82;;;;;;;;;;5021429;28;20777;-61
2021/09/20 11:50:12;;;;;;;17.35;14.43;;;;;;;;;;5031252;28;20481;-61
2021/09/20 11:52:39;;;;;;;17.77;14.60;;;;;;;;;;5029023;28;20412;-60
2021/09/20 11:55:10;;;;;;;18.00;14.68;;;;;;;;;;5014004;28;20388;-61
2021/09/20 11:57:40;;;;;;;17.27;14.57;;;;;;;;;;5071425;22;20122;-61
2021/09/20 12:00:07;;;;;;;16.50;14.05;;;;;;;;;;5050317;28;20079;-61
2021/09/20 12:02:44;;;;;;;16.27;14.23;;;;;;;;;;5050606;28;20100;-61
2021/09/20 12:05:12;;;;;;;18.77;14.82;;;;;;;;;;5049745;28;20103;-61
2021/09/20 12:07:45;;;;;;;16.27;14.23;;;;;;;;;;5034062;28;20044;-62
2021/09/20 12:10:11;;;;;;;17.90;14.77;;;;;;;;;;5030858;28;20045;-62
2021/09/20 12:12:37;;;;;;;17.08;14.50;;;;;;;;;;4997552;28;20028;-61
2021/09/20 12:15:06;;;;;;;20.20;14.80;;;;;;;;;;5012400;28;20086;-63
2021/09/20 12:17:45;;;;;;;17.80;14.25;;;;;;;;;;5012246;28;20394;-63
2021/09/20 12:20:11;;;;;;;16.80;14.50;;;;;;;;;;5011848;28;20030;-64
2021/09/20 12:22:39;;;;;;;20.67;14.60;;;;;;;;;;5012340;28;20030;-63
2021/09/20 12:25:18;;;;;;;16.97;14.17;;;;;;;;;;4994478;28;20112;-64
2021/09/20 12:27:44;;;;;;;16.70;13.98;;;;;;;;;;5011933;28;20118;-63
2021/09/20 12:30:14;;;;;;;19.30;14.50;;;;;;;;;;4993648;28;20030;-62
2021/09/20 12:32:40;;;;;;;17.95;15.00;;;;;;;;;;5013039;28;20026;-63
2021/09/20 12:35:06;;;;;;;17.75;14.30;;;;;;;;;;5011675;28;20091;-65
2021/09/20 12:37:32;;;;;;;16.95;14.25;;;;;;;;;;5011161;28;20030;-60
2021/09/20 12:40:17;;;;;;;18.67;14.48;;;;;;;;;;5010263;28;20597;-61
2021/09/20 12:42:43;;;;;;;16.65;14.10;;;;;;;;;;5010466;28;20041;-60
2021/09/20 12:45:16;;;;;;;17.40;13.80;;;;;;;;;;5010946;28;20101;-63
2021/09/20 12:47:42;;;;;;;19.30;14.20;;;;;;;;;;5010964;28;20029;-63
2021/09/20 12:50:12;;;;;;;18.50;14.43;;;;;;;;;;4992627;28;20136;-63
2021/09/20 12:55:43;;;;;;;18.35;14.70;;;;;;;;;;4949592;29;20038;-63
2021/09/20 12:58:24;;;;;;;17.25;13.90;;;;;;;;;;5027477;28;20042;-61
2021/09/20 13:00:53;;;;;;;17.20;13.77;;;;;;;;;;5012387;28;20021;-62
2021/09/20 13:03:24;;;;;;;17.52;14.13;;;;;;;;;;5030029;28;20079;-62
2021/09/20 13:06:08;;;;;;;;;;;;;;;;;;;;;
2021/09/20 13:08:54;;;;;;;18.13;13.95;;;;;;;;;;5009965;28;20021;-61
2021/09/20 13:11:53;;;;;;;;;;;;;;;;;;;;;
2021/09/20 13:14:24;;;;;;;17.42;14.38;;;;;;;;;;5009929;28;20018;-62
2021/09/20 13:16:59;;;;;;;19.38;14.70;;;;;;;;;;5012951;28;20030;-62
2021/09/20 13:19:42;;;;;;;17.67;14.40;;;;;;;;;;4666699;28;10000439;-61
2021/09/20 13:28:17;;;;;;;20.83;16.25;;;;;;;;;;5025425;28;20096;-61
2021/09/20 13:30:47;;;;;;;18.77;13.95;;;;;;;;;;5029512;28;20037;-61
2021/09/20 13:34:02;;;;;;;;;;;;;;;;;;;;;
2021/09/20 13:37:00;;;;;;;19.13;14.15;;;33.20;91.00;;;;;;4987103;28;20026;-61
2021/09/20 13:39:34;;;;;;;17.80;14.50;;;;;;;;;;4966000;28;20089;-62
2021/09/20 13:42:28;;;;;;;17.20;14.23;;;;;;;;;;5029519;28;20065;-61
2021/09/20 13:49:18;;;;;;;18.20;14.20;;;;;;;;;;4948708;28;20066;-62
2021/09/20 13:51:27;;;;;;;18.80;14.80;;;;;;;;;;4921851;29;20051;-62
2021/09/20 13:54:11;;;;;;;17.40;14.40;;;;;;;;;;4980514;28;20437;-62
2021/09/20 13:56:40;;;;;;;17.63;14.32;;;;;;;;;;4974785;28;20042;-62
2021/09/20 13:59:27;;;;;;;18.70;15.20;;;;;;;;;;4951447;28;20058;-62
2021/09/20 14:01:59;;;;;;;16.75;14.43;;;;;;;;;;4951280;28;20041;-61
2021/09/20 14:07:46;;;;;;;16.33;13.80;;;;;;;;;;4872866;29;20040;-62
2021/09/20 14:10:58;;;;;;;17.40;14.18;;;;;;;;;;4964639;28;20069;-62
2021/09/20 14:13:32;;;;;;;21.35;15.10;;;;;;;;;;4953892;28;20041;-62
2021/09/20 14:16:03;;;;;;;21.25;13.95;;;;;;;;;;4953398;28;20594;-63
2021/09/20 14:18:29;;;;;;;17.10;14.73;;;;;;;;;;5009609;28;20033;-62
2021/09/20 14:20:55;;;;;;;18.13;14.10;;;;;;;;;;5021426;28;20025;-62
2021/09/20 14:23:22;;;;;;;17.00;13.90;;;;;;;;;;5027439;28;20087;-62
2021/09/20 14:25:48;;;;;;;39.22;16.77;;;;;;;;;;5009178;28;20533;-62
2021/09/20 14:28:16;;;;;;;18.00;14.50;;;;;;;;;;4990540;28;20037;-62
2021/09/20 14:30:42;;;;;;;18.73;14.32;;;;;;;;;;4990415;28;20021;-62
2021/09/20 14:33:08;;;;;;;17.67;14.05;;;;;;;;;;4990623;28;20037;-63
2021/09/20 14:35:35;;;;;;;16.60;13.80;;;;;;;;;;5008888;28;20062;-62
2021/09/20 14:38:01;;;;;;;17.15;14.10;;;;;;;;;;5008111;28;20030;-62
2021/09/20 14:40:28;;;;;;;17.23;13.85;;;;;;;;;;5008646;28;20037;-61
2021/09/20 14:42:55;;;;;;;16.75;14.10;;;;;;;;;;5008422;28;20371;-62
2021/09/20 14:45:21;;;;;;;16.95;13.90;;;;;;;;;;5008576;28;20037;-62